createdAt,value
2018-09-29T00:00:41.643Z,8.30
2018-09-29T00:03:13.888Z,9.83
2018-09-29T00:05:46.089Z,8.77
2018-09-29T00:08:18.006Z,11.87
2018-09-29T00:10:51.009Z,10.63
2018-09-29T00:13:23.099Z,8.77
2018-09-29T00:15:55.312Z,10.50
2018-09-29T00:18:28.227Z,7.83
2018-09-29T00:21:00.492Z,10.47
2018-09-29T00:23:33.949Z,8.73
2018-09-29T00:26:06.263Z,8.60
2018-09-29T00:28:38.473Z,8.40
2018-09-29T00:33:43.676Z,9.60
2018-09-29T00:36:16.972Z,11.70
2018-09-29T00:38:50.823Z,13.37
2018-09-29T00:41:22.894Z,10.37
2018-09-29T00:43:54.350Z,8.27
2018-09-29T00:46:26.436Z,13.77
2018-09-29T00:48:58.524Z,11.77
2018-09-29T00:51:30.704Z,11.07
2018-09-29T00:54:02.771Z,7.77
2018-09-29T00:56:35.051Z,9.10
2018-09-29T00:59:07.296Z,9.83
2018-09-29T01:01:38.904Z,11.10
2018-09-29T01:04:10.677Z,11.57
2018-09-29T01:06:42.855Z,15.27
2018-09-29T01:09:14.930Z,14.67
2018-09-29T01:11:47.003Z,12.30
2018-09-29T01:14:18.952Z,11.27
2018-09-29T01:16:51.105Z,12.77
2018-09-29T01:19:22.779Z,10.87
2018-09-29T01:21:54.443Z,8.77
2018-09-29T01:24:26.452Z,11.37
2018-09-29T01:26:58.780Z,9.40
2018-09-29T01:29:30.447Z,11.33
2018-09-29T01:32:02.841Z,9.57
2018-09-29T01:34:35.062Z,12.50
2018-09-29T01:37:07.035Z,12.80
2018-09-29T01:39:38.971Z,14.27
2018-09-29T01:42:11.732Z,12.97
2018-09-29T01:44:43.738Z,10.97
2018-09-29T01:47:15.543Z,10.37
2018-09-29T01:49:47.475Z,9.47
2018-09-29T01:52:19.243Z,11.23
2018-09-29T01:54:51.188Z,9.43
2018-09-29T01:57:22.986Z,10.53
2018-09-29T01:59:55.012Z,9.93
2018-09-29T02:02:26.839Z,11.90
2018-09-29T02:04:59.405Z,10.53
2018-09-29T02:07:31.505Z,10.83
2018-09-29T02:10:03.717Z,9.23
2018-09-29T02:12:35.653Z,10.97
2018-09-29T02:15:07.352Z,10.87
2018-09-29T02:17:39.111Z,7.83
2018-09-29T02:20:12.139Z,12.03
2018-09-29T02:22:44.319Z,10.87
2018-09-29T02:25:16.695Z,11.73
2018-09-29T02:27:49.366Z,8.87
2018-09-29T02:30:22.065Z,9.23
2018-09-29T02:32:54.051Z,10.47
2018-09-29T02:35:26.604Z,10.63
2018-09-29T02:37:58.759Z,9.23
2018-09-29T02:40:30.972Z,8.83
2018-09-29T02:43:03.406Z,12.40
2018-09-29T02:45:36.056Z,13.37
2018-09-29T02:48:07.954Z,10.10
2018-09-29T02:50:39.967Z,9.30
2018-09-29T02:53:12.049Z,9.43
2018-09-29T02:55:43.875Z,10.10
2018-09-29T02:58:15.510Z,9.10
2018-09-29T03:00:47.384Z,9.87
2018-09-29T03:03:19.259Z,10.50
2018-09-29T03:05:51.195Z,11.73
2018-09-29T03:08:23.243Z,10.13
2018-09-29T03:10:55.024Z,9.50
2018-09-29T03:13:27.381Z,13.20
2018-09-29T03:15:59.209Z,10.37
2018-09-29T03:18:31.372Z,9.17
2018-09-29T03:21:03.630Z,7.67
2018-09-29T03:23:35.486Z,8.57
2018-09-29T03:26:07.771Z,9.07
2018-09-29T03:28:40.847Z,8.03
2018-09-29T03:31:13.024Z,10.33
2018-09-29T03:33:44.876Z,12.37
2018-09-29T03:36:16.819Z,8.73
2018-09-29T03:38:49.493Z,9.73
2018-09-29T03:41:21.596Z,8.83
2018-09-29T03:43:53.551Z,11.57
2018-09-29T03:46:25.827Z,13.20
2018-09-29T03:48:57.913Z,13.83
2018-09-29T03:51:30.510Z,9.83
2018-09-29T03:54:02.578Z,9.63
2018-09-29T03:56:34.762Z,11.87
2018-09-29T03:59:06.773Z,16.10
2018-09-29T04:01:38.727Z,11.07
2018-09-29T04:04:11.069Z,10.83
2018-09-29T04:06:43.077Z,13.60
2018-09-29T04:09:16.038Z,10.03
2018-09-29T04:11:47.773Z,12.63
2018-09-29T04:14:19.676Z,11.73
2018-09-29T04:16:51.487Z,14.07
2018-09-29T04:19:23.499Z,9.57
2018-09-29T04:21:55.494Z,11.07
2018-09-29T04:24:27.541Z,9.30
2018-09-29T04:26:59.544Z,11.77
2018-09-29T04:29:31.900Z,11.10
2018-09-29T04:32:03.827Z,9.53
2018-09-29T04:34:35.918Z,9.20
2018-09-29T04:37:08.240Z,10.03
2018-09-29T04:39:40.278Z,10.27
2018-09-29T04:42:12.235Z,9.63
2018-09-29T04:44:44.181Z,10.13
2018-09-29T04:47:16.451Z,10.73
2018-09-29T04:49:48.315Z,12.60
2018-09-29T04:52:20.113Z,14.07
2018-09-29T04:54:52.045Z,8.80
2018-09-29T04:57:24.450Z,8.07
2018-09-29T04:59:56.682Z,11.47
2018-09-29T05:02:28.761Z,9.80
2018-09-29T05:05:31.647Z,15.80
2018-09-29T05:08:03.653Z,11.43
2018-09-29T05:10:35.859Z,9.30
2018-09-29T05:13:08.170Z,12.07
2018-09-29T05:15:40.990Z,13.20
2018-09-29T05:18:12.974Z,17.23
2018-09-29T05:20:45.072Z,31.50
2018-09-29T05:23:17.764Z,29.47
2018-09-29T05:25:50.044Z,20.03
2018-09-29T05:28:22.313Z,14.20
2018-09-29T05:30:54.451Z,14.97
2018-09-29T05:33:26.411Z,11.07
2018-09-29T05:35:58.425Z,11.70
2018-09-29T05:38:30.490Z,10.17
2018-09-29T05:41:02.568Z,10.57
2018-09-29T05:43:34.799Z,12.27
2018-09-29T05:46:07.061Z,11.63
2018-09-29T05:48:39.487Z,11.33
2018-09-29T05:51:11.406Z,11.67
2018-09-29T05:53:43.546Z,13.77
2018-09-29T05:56:16.244Z,16.40
2018-09-29T05:58:48.225Z,10.93
2018-09-29T06:01:20.270Z,12.37
2018-09-29T06:03:52.225Z,9.23
2018-09-29T06:06:24.446Z,17.70
2018-09-29T06:08:56.431Z,9.90
2018-09-29T06:11:28.657Z,10.80
2018-09-29T06:14:00.875Z,14.07
2018-09-29T06:16:33.041Z,9.40
2018-09-29T06:19:05.924Z,11.07
2018-09-29T06:21:38.578Z,11.73
2018-09-29T06:24:10.803Z,8.43
2018-09-29T06:26:43.033Z,11.10
2018-09-29T06:29:15.372Z,12.27
2018-09-29T06:31:48.527Z,12.43
2018-09-29T06:34:23.056Z,15.90
2018-09-29T06:36:56.526Z,12.33
2018-09-29T06:39:28.723Z,10.93
2018-09-29T06:42:01.180Z,11.00
2018-09-29T06:44:33.910Z,13.53
2018-09-29T06:47:06.473Z,14.27
2018-09-29T06:49:38.950Z,17.17
2018-09-29T06:52:11.479Z,19.03
2018-09-29T06:54:44.152Z,17.30
2018-09-29T06:57:16.444Z,21.40
2018-09-29T06:59:48.944Z,25.30
2018-09-29T07:02:21.532Z,16.60
2018-09-29T07:04:53.938Z,17.73
2018-09-29T07:07:27.482Z,20.43
2018-09-29T07:10:00.423Z,14.43
2018-09-29T07:12:32.977Z,17.73
2018-09-29T07:15:05.504Z,14.50
2018-09-29T07:17:38.106Z,11.23
2018-09-29T07:20:11.224Z,13.43
2018-09-29T07:22:43.927Z,14.97
2018-09-29T07:25:15.989Z,10.63
2018-09-29T07:27:48.162Z,11.57
2018-09-29T07:30:20.664Z,13.70
2018-09-29T07:32:53.119Z,14.67
2018-09-29T07:35:25.347Z,17.07
2018-09-29T07:37:57.848Z,12.97
2018-09-29T07:40:30.054Z,17.23
2018-09-29T07:43:02.395Z,17.30
2018-09-29T07:45:34.518Z,16.80
2018-09-29T07:48:06.711Z,16.77
2018-09-29T07:50:38.574Z,16.63
2018-09-29T07:53:11.145Z,13.60
2018-09-29T07:55:43.447Z,14.83
2018-09-29T07:58:15.445Z,13.90
2018-09-29T08:00:47.526Z,12.63
2018-09-29T08:03:19.546Z,16.70
2018-09-29T08:05:51.797Z,15.47
2018-09-29T08:08:23.692Z,17.07
2018-09-29T08:10:55.919Z,16.27
2018-09-29T08:13:28.046Z,15.40
2018-09-29T08:16:00.058Z,14.97
2018-09-29T08:18:32.414Z,12.27
2018-09-29T08:21:04.669Z,15.63
2018-09-29T08:23:36.909Z,15.67
2018-09-29T08:26:09.013Z,20.13
2018-09-29T08:28:40.947Z,13.23
2018-09-29T08:31:12.830Z,14.43
2018-09-29T08:33:45.132Z,12.80
2018-09-29T08:36:17.190Z,11.97
2018-09-29T08:38:49.431Z,14.87
2018-09-29T08:41:23.206Z,9.73
2018-09-29T08:43:55.321Z,16.60
2018-09-29T08:46:27.689Z,11.40
2018-09-29T08:48:59.994Z,9.47
2018-09-29T08:51:32.014Z,15.63
2018-09-29T08:54:04.321Z,13.03
2018-09-29T08:56:36.515Z,17.23
2018-09-29T08:59:09.081Z,10.40
2018-09-29T09:01:41.467Z,13.67
2018-09-29T09:04:14.228Z,9.60
2018-09-29T09:06:46.684Z,12.30
2018-09-29T09:09:18.705Z,11.00
2018-09-29T09:11:51.174Z,16.33
2018-09-29T09:14:23.483Z,8.37
2018-09-29T09:16:55.718Z,10.20
2018-09-29T09:19:28.417Z,10.57
2018-09-29T09:22:01.140Z,10.33
2018-09-29T09:24:33.851Z,10.90
2018-09-29T09:27:05.770Z,12.50
2018-09-29T09:29:38.230Z,10.90
2018-09-29T09:32:10.195Z,9.77
2018-09-29T09:34:42.872Z,14.93
2018-09-29T09:37:15.269Z,9.10
2018-09-29T09:39:47.323Z,12.43
2018-09-29T09:42:19.476Z,8.60
2018-09-29T09:44:52.014Z,11.27
2018-09-29T09:47:24.669Z,9.47
2018-09-29T09:49:56.759Z,9.83
2018-09-29T09:52:28.860Z,10.13
2018-09-29T09:55:00.527Z,8.73
2018-09-29T09:57:32.757Z,9.87
2018-09-29T10:00:05.502Z,13.00
2018-09-29T10:02:47.195Z,10.23
2018-09-29T10:05:19.675Z,6.80
2018-09-29T10:07:51.914Z,6.20
2018-09-29T10:10:24.238Z,5.80
2018-09-29T10:12:56.848Z,10.50
2018-09-29T10:15:29.088Z,30.60
2018-09-29T10:18:01.268Z,16.87
2018-09-29T10:20:34.257Z,8.50
2018-09-29T10:23:06.621Z,5.63
2018-09-29T10:25:38.841Z,9.60
2018-09-29T10:28:10.646Z,22.37
2018-09-29T10:30:42.437Z,9.47
2018-09-29T10:33:14.616Z,6.80
2018-09-29T10:35:46.810Z,9.17
2018-09-29T10:38:19.109Z,4.83
2018-09-29T10:40:51.483Z,6.97
2018-09-29T10:43:23.577Z,9.27
2018-09-29T10:45:55.957Z,5.70
2018-09-29T10:48:27.701Z,8.80
2018-09-29T10:51:00.063Z,6.73
2018-09-29T10:53:32.627Z,9.30
2018-09-29T10:56:04.991Z,8.07
2018-09-29T10:58:37.574Z,8.30
2018-09-29T11:01:09.892Z,116.60
2018-09-29T11:03:41.982Z,138.00
2018-09-29T11:06:13.734Z,26.83
2018-09-29T11:08:46.051Z,7.40
2018-09-29T11:11:18.139Z,4.47
2018-09-29T11:13:50.778Z,5.83
2018-09-29T11:16:23.209Z,6.40
2018-09-29T11:18:55.589Z,6.17
2018-09-29T11:21:27.787Z,5.47
2018-09-29T11:23:59.478Z,4.80
2018-09-29T11:26:31.457Z,5.17
2018-09-29T11:29:03.892Z,10.50
2018-09-29T11:31:36.158Z,7.10
2018-09-29T11:34:08.337Z,4.20
2018-09-29T11:36:40.418Z,5.53
2018-09-29T11:39:13.497Z,8.83
2018-09-29T11:41:45.209Z,6.97
2018-09-29T11:44:17.154Z,9.53
2018-09-29T11:46:50.121Z,4.30
2018-09-29T11:49:22.611Z,5.70
2018-09-29T11:51:54.934Z,7.07
2018-09-29T11:54:27.234Z,12.10
2018-09-29T11:56:59.319Z,14.33
2018-09-29T11:59:31.276Z,17.20
2018-09-29T12:02:04.229Z,5.97
2018-09-29T12:04:36.565Z,10.10
2018-09-29T12:07:08.788Z,11.17
2018-09-29T12:09:41.119Z,6.73
2018-09-29T12:12:13.423Z,5.73
2018-09-29T12:14:46.016Z,8.27
2018-09-29T12:17:17.714Z,7.87
2018-09-29T12:19:49.803Z,6.00
2018-09-29T12:22:22.020Z,5.87
2018-09-29T12:24:55.034Z,9.00
2018-09-29T12:27:27.487Z,4.43
2018-09-29T12:29:59.936Z,6.10
2018-09-29T12:32:32.377Z,4.27
2018-09-29T12:35:06.821Z,6.10
2018-09-29T12:37:38.843Z,6.07
2018-09-29T12:40:10.970Z,9.13
2018-09-29T12:42:43.352Z,8.70
2018-09-29T12:45:15.635Z,7.33
2018-09-29T12:47:47.942Z,4.40
2018-09-29T12:50:20.198Z,6.67
2018-09-29T12:52:52.117Z,5.10
2018-09-29T12:55:24.601Z,5.63
2018-09-29T12:57:57.161Z,6.97
2018-09-29T13:00:29.586Z,8.53
2018-09-29T13:03:01.840Z,5.60
2018-09-29T13:05:34.098Z,10.83
2018-09-29T13:08:13.140Z,6.30
2018-09-29T13:10:51.331Z,4.70
2018-09-29T13:13:24.220Z,6.03
2018-09-29T13:15:56.736Z,4.80
2018-09-29T13:18:29.389Z,13.67
2018-09-29T13:21:01.701Z,8.83
2018-09-29T13:23:35.035Z,5.33
2018-09-29T13:26:07.427Z,4.30
2018-09-29T13:28:39.868Z,5.20
2018-09-29T13:31:12.287Z,8.00
2018-09-29T13:33:45.212Z,6.97
2018-09-29T13:36:19.105Z,4.23
2018-09-29T13:38:51.405Z,5.30
2018-09-29T13:41:23.626Z,5.93
2018-09-29T13:43:56.615Z,16.50
2018-09-29T13:46:28.733Z,8.93
2018-09-29T13:49:00.585Z,5.07
2018-09-29T13:51:33.405Z,3.77
2018-09-29T13:54:05.924Z,4.30
2018-09-29T13:56:38.885Z,6.20
2018-09-29T13:59:11.263Z,5.10
2018-09-29T14:01:43.584Z,5.20
2018-09-29T14:04:15.901Z,5.23
2018-09-29T14:06:48.588Z,3.67
2018-09-29T14:09:20.487Z,7.33
2018-09-29T14:11:52.717Z,4.03
2018-09-29T14:14:24.683Z,8.27
2018-09-29T14:16:57.208Z,3.30
2018-09-29T14:19:29.290Z,5.00
2018-09-29T14:22:01.701Z,5.17
2018-09-29T14:24:33.729Z,4.70
2018-09-29T14:27:05.358Z,7.83
2018-09-29T14:29:38.263Z,5.97
2018-09-29T14:32:10.702Z,6.03
2018-09-29T14:34:43.215Z,16.03
2018-09-29T14:37:15.655Z,13.63
2018-09-29T14:39:48.290Z,9.40
2018-09-29T14:42:20.724Z,7.40
2018-09-29T14:44:52.517Z,8.70
2018-09-29T14:47:24.951Z,9.57
2018-09-29T14:49:57.540Z,13.33
2018-09-29T14:52:30.057Z,10.23
2018-09-29T14:55:02.343Z,12.53
2018-09-29T14:57:34.583Z,11.40
2018-09-29T15:00:07.155Z,11.73
2018-09-29T15:02:39.008Z,13.63
2018-09-29T15:05:11.752Z,11.57
2018-09-29T15:07:44.356Z,11.27
2018-09-29T15:10:16.785Z,12.47
2018-09-29T15:12:49.110Z,16.60
2018-09-29T15:15:21.315Z,17.40
2018-09-29T15:17:53.834Z,15.23
2018-09-29T15:20:26.303Z,14.73
2018-09-29T15:22:58.622Z,11.20
2018-09-29T15:25:31.162Z,18.13
2018-09-29T15:28:03.265Z,11.57
2018-09-29T15:30:35.784Z,14.93
2018-09-29T15:33:07.952Z,14.37
2018-09-29T15:35:40.610Z,12.43
2018-09-29T15:38:12.369Z,13.13
2018-09-29T15:40:44.711Z,15.67
2018-09-29T15:43:16.880Z,14.40
2018-09-29T15:45:48.946Z,16.70
2018-09-29T15:48:21.159Z,11.97
2018-09-29T15:50:53.701Z,13.27
2018-09-29T15:53:26.248Z,12.67
2018-09-29T15:55:58.065Z,14.17
2018-09-29T15:58:30.239Z,10.53
2018-09-29T16:01:02.819Z,11.97
2018-09-29T16:03:34.856Z,13.97
2018-09-29T16:06:06.836Z,13.87
2018-09-29T16:08:39.360Z,11.77
2018-09-29T16:11:12.326Z,18.57
2018-09-29T16:13:43.989Z,15.63
2018-09-29T16:16:16.356Z,13.47
2018-09-29T16:18:48.669Z,12.37
2018-09-29T16:21:21.841Z,12.67
2018-09-29T16:23:54.164Z,12.83
2018-09-29T16:26:26.555Z,11.03
2018-09-29T16:28:59.224Z,10.77
2018-09-29T16:31:31.523Z,10.87
2018-09-29T16:34:04.717Z,14.27
2018-09-29T16:36:37.019Z,13.30
2018-09-29T16:39:14.113Z,12.90
2018-09-29T16:41:46.056Z,14.77
2018-09-29T16:44:17.730Z,14.10
2018-09-29T16:46:50.882Z,14.83
2018-09-29T16:49:23.553Z,16.63
2018-09-29T16:51:55.848Z,13.80
2018-09-29T16:54:27.969Z,17.03
2018-09-29T16:57:00.650Z,18.67
2018-09-29T16:59:33.264Z,18.17
2018-09-29T17:02:05.977Z,19.63
2018-09-29T17:04:38.319Z,17.37
2018-09-29T17:07:10.709Z,19.13
2018-09-29T17:09:43.142Z,15.57
2018-09-29T17:12:15.110Z,19.50
2018-09-29T17:14:47.530Z,16.43
2018-09-29T17:17:19.759Z,16.70
2018-09-29T17:19:51.428Z,14.87
2018-09-29T17:22:23.911Z,13.87
2018-09-29T17:24:56.469Z,13.20
2018-09-29T17:27:30.169Z,11.47
2018-09-29T17:30:02.939Z,16.13
2018-09-29T17:32:35.525Z,16.27
2018-09-29T17:35:07.855Z,19.87
2018-09-29T17:37:39.778Z,13.33
2018-09-29T17:40:12.475Z,13.60
2018-09-29T17:42:44.400Z,12.10
2018-09-29T17:45:16.681Z,15.97
2018-09-29T17:47:49.101Z,13.13
2018-09-29T17:50:21.534Z,14.17
2018-09-29T17:52:53.312Z,13.47
2018-09-29T17:55:25.809Z,13.27
2018-09-29T17:57:57.884Z,13.63
2018-09-29T18:00:30.763Z,15.10
2018-09-29T18:03:03.298Z,12.97
2018-09-29T18:05:35.957Z,13.40
2018-09-29T18:08:08.358Z,13.67
2018-09-29T18:10:41.014Z,13.53
2018-09-29T18:13:13.508Z,16.03
2018-09-29T18:15:46.336Z,16.93
2018-09-29T18:18:19.706Z,14.47
2018-09-29T18:20:52.550Z,12.77
2018-09-29T18:23:25.184Z,14.80
2018-09-29T18:25:56.904Z,17.40
2018-09-29T18:28:29.499Z,15.70
2018-09-29T18:31:01.674Z,15.70
2018-09-29T18:33:33.872Z,17.30
2018-09-29T18:36:06.346Z,16.20
2018-09-29T18:38:39.146Z,18.00
2018-09-29T18:41:11.346Z,17.23
2018-09-29T18:43:43.903Z,18.27
2018-09-29T18:46:16.203Z,20.33
2018-09-29T18:48:48.356Z,20.50
2018-09-29T18:51:21.090Z,19.23
2018-09-29T18:53:53.441Z,21.23
2018-09-29T18:56:25.763Z,22.77
2018-09-29T18:58:58.215Z,23.83
2018-09-29T19:01:30.692Z,21.83
2018-09-29T19:04:02.971Z,23.90
2018-09-29T19:06:35.836Z,20.97
2018-09-29T19:09:12.152Z,29.03
2018-09-29T19:11:45.017Z,22.60
2018-09-29T19:14:17.455Z,24.27
2018-09-29T19:16:49.669Z,23.00
2018-09-29T19:19:21.984Z,28.23
2018-09-29T19:21:54.185Z,25.10
2018-09-29T19:24:26.632Z,24.27
2018-09-29T19:26:58.861Z,27.60
2018-09-29T19:29:31.136Z,31.73
2018-09-29T19:32:03.586Z,26.73
2018-09-29T19:34:36.014Z,29.30
2018-09-29T19:37:08.180Z,27.23
2018-09-29T19:39:40.823Z,23.97
2018-09-29T19:42:13.105Z,35.87
2018-09-29T19:44:45.307Z,31.10
2018-09-29T19:47:17.696Z,29.17
2018-09-29T19:49:49.924Z,28.77
2018-09-29T19:52:22.831Z,32.33
2018-09-29T19:54:54.902Z,29.83
2018-09-29T19:57:27.414Z,31.97
2018-09-29T19:59:59.502Z,28.30
2018-09-29T20:02:31.457Z,28.43
2018-09-29T20:05:04.374Z,29.07
2018-09-29T20:07:37.503Z,28.67
2018-09-29T20:10:09.874Z,27.57
2018-09-29T20:12:42.057Z,28.17
2018-09-29T20:15:14.434Z,24.10
2018-09-29T20:17:46.772Z,25.80
2018-09-29T20:20:19.051Z,32.50
2018-09-29T20:22:51.325Z,27.50
2018-09-29T20:25:23.796Z,30.27
2018-09-29T20:27:55.936Z,26.00
2018-09-29T20:30:30.027Z,30.10
2018-09-29T20:33:02.288Z,25.00
2018-09-29T20:35:34.436Z,31.93
2018-09-29T20:38:06.961Z,29.83
2018-09-29T20:40:39.080Z,29.77
2018-09-29T20:43:11.462Z,44.77
2018-09-29T20:45:43.478Z,33.43
2018-09-29T20:48:16.493Z,32.73
2018-09-29T20:50:48.883Z,27.97
2018-09-29T20:53:22.016Z,34.50
2018-09-29T20:55:54.416Z,28.70
2018-09-29T20:58:26.646Z,34.80
2018-09-29T21:00:58.822Z,44.13
2018-09-29T21:03:31.019Z,44.27
2018-09-29T21:06:03.699Z,46.93
2018-09-29T21:08:36.306Z,42.20
2018-09-29T21:11:08.602Z,41.93
2018-09-29T21:13:41.162Z,43.27
2018-09-29T21:16:13.605Z,40.90
2018-09-29T21:18:45.641Z,34.17
2018-09-29T21:21:17.814Z,36.67
2018-09-29T21:23:50.001Z,35.00
2018-09-29T21:26:22.534Z,31.97
2018-09-29T21:28:55.196Z,26.97
2018-09-29T21:31:27.799Z,30.03
2018-09-29T21:34:00.399Z,30.43
2018-09-29T21:36:32.956Z,34.67
2018-09-29T21:39:06.790Z,35.50
2018-09-29T21:41:38.834Z,30.73
2018-09-29T21:44:10.869Z,35.60
2018-09-29T21:46:42.916Z,33.37
2018-09-29T21:49:14.983Z,31.20
2018-09-29T21:51:47.585Z,36.53
2018-09-29T21:54:20.212Z,28.97
2018-09-29T21:56:52.499Z,31.67
2018-09-29T21:59:24.419Z,31.20
2018-09-29T22:01:56.610Z,32.37
2018-09-29T22:04:29.070Z,30.37
2018-09-29T22:07:01.268Z,31.03
2018-09-29T22:09:33.435Z,33.30
2018-09-29T22:12:05.735Z,33.40
2018-09-29T22:14:38.230Z,31.30
2018-09-29T22:17:10.238Z,34.53
2018-09-29T22:19:42.284Z,32.73
2018-09-29T22:22:15.726Z,30.23
2018-09-29T22:24:47.638Z,33.57
2018-09-29T22:27:19.741Z,34.53
2018-09-29T22:29:51.990Z,31.30
2018-09-29T22:32:24.105Z,33.10
2018-09-29T22:34:56.346Z,33.37
2018-09-29T22:37:28.316Z,30.57
2018-09-29T22:40:01.039Z,28.97
2018-09-29T22:42:33.275Z,30.20
2018-09-29T22:45:05.289Z,34.97
2018-09-29T22:47:37.551Z,34.87
2018-09-29T22:50:09.825Z,32.80
2018-09-29T22:52:42.305Z,31.73
2018-09-29T22:55:14.838Z,35.57
2018-09-29T22:57:46.989Z,35.23
2018-09-29T23:00:18.954Z,32.33
2018-09-29T23:02:51.387Z,34.77
2018-09-29T23:05:23.760Z,33.60
2018-09-29T23:07:56.396Z,30.17
2018-09-29T23:10:28.600Z,36.77
2018-09-29T23:13:00.688Z,35.63
2018-09-29T23:15:33.029Z,36.50
2018-09-29T23:18:05.278Z,37.13
2018-09-29T23:20:37.698Z,30.37
2018-09-29T23:23:09.965Z,33.77
2018-09-29T23:25:42.104Z,37.93
2018-09-29T23:28:14.501Z,39.27
2018-09-29T23:30:47.121Z,36.97
2018-09-29T23:33:19.063Z,39.67
2018-09-29T23:35:51.542Z,36.23
2018-09-29T23:38:23.615Z,36.40
2018-09-29T23:40:55.700Z,33.77
2018-09-29T23:43:27.875Z,38.10
2018-09-29T23:45:59.680Z,36.33
2018-09-29T23:48:31.615Z,34.83
2018-09-29T23:51:03.850Z,35.63
2018-09-29T23:53:35.689Z,33.00
2018-09-29T23:56:08.818Z,32.00
2018-09-29T23:58:41.214Z,32.73
